sensor_id;sensor_type;location;lat;lon;timestamp;P1;durP1;ratioP1;P2;durP2;ratioP2
47790;SDS011;33547;49.044;1.156;2022-10-31T00:01:00;1.88;;;1.65;;
47790;SDS011;33547;49.044;1.156;2022-10-31T00:03:26;1.95;;;1.85;;
47790;SDS011;33547;49.044;1.156;2022-10-31T00:05:52;2.25;;;2.03;;
47790;SDS011;33547;49.044;1.156;2022-10-31T00:08:18;3.25;;;2.10;;
47790;SDS011;33547;49.044;1.156;2022-10-31T00:10:45;2.17;;;1.85;;
47790;SDS011;33547;49.044;1.156;2022-10-31T00:13:11;2.28;;;1.90;;
47790;SDS011;33547;49.044;1.156;2022-10-31T00:15:39;1.90;;;1.73;;
47790;SDS011;33547;49.044;1.156;2022-10-31T00:18:06;1.90;;;1.80;;
47790;SDS011;33547;49.044;1.156;2022-10-31T00:20:34;2.92;;;2.10;;
47790;SDS011;33547;49.044;1.156;2022-10-31T00:23:00;1.85;;;1.70;;
47790;SDS011;33547;49.044;1.156;2022-10-31T00:25:27;2.35;;;2.15;;
47790;SDS011;33547;49.044;1.156;2022-10-31T00:27:57;2.25;;;2.05;;
47790;SDS011;33547;49.044;1.156;2022-10-31T00:30:23;2.35;;;2.10;;
47790;SDS011;33547;49.044;1.156;2022-10-31T00:32:49;3.05;;;2.53;;
47790;SDS011;33547;49.044;1.156;2022-10-31T00:35:15;3.03;;;2.10;;
47790;SDS011;33547;49.044;1.156;2022-10-31T00:37:40;2.30;;;2.17;;
47790;SDS011;33547;49.044;1.156;2022-10-31T00:40:06;2.15;;;1.95;;
47790;SDS011;33547;49.044;1.156;2022-10-31T00:42:33;2.15;;;1.88;;
47790;SDS011;33547;49.044;1.156;2022-10-31T00:44:59;2.40;;;2.20;;
47790;SDS011;33547;49.044;1.156;2022-10-31T00:47:24;2.42;;;2.33;;
47790;SDS011;33547;49.044;1.156;2022-10-31T00:49:50;2.47;;;2.10;;
47790;SDS011;33547;49.044;1.156;2022-10-31T00:52:16;4.53;;;2.83;;
47790;SDS011;33547;49.044;1.156;2022-10-31T00:54:42;2.22;;;2.03;;
47790;SDS011;33547;49.044;1.156;2022-10-31T00:57:07;2.90;;;2.60;;
47790;SDS011;33547;49.044;1.156;2022-10-31T00:59:33;2.53;;;2.33;;
47790;SDS011;33547;49.044;1.156;2022-10-31T01:01:59;4.10;;;2.33;;
47790;SDS011;33547;49.044;1.156;2022-10-31T01:04:25;3.17;;;2.50;;
47790;SDS011;33547;49.044;1.156;2022-10-31T01:06:50;2.35;;;2.15;;
47790;SDS011;33547;49.044;1.156;2022-10-31T01:09:16;2.80;;;2.33;;
47790;SDS011;33547;49.044;1.156;2022-10-31T01:11:42;2.72;;;2.08;;
47790;SDS011;33547;49.044;1.156;2022-10-31T01:14:08;2.42;;;2.13;;
47790;SDS011;33547;49.044;1.156;2022-10-31T01:16:34;2.33;;;2.13;;
47790;SDS011;33547;49.044;1.156;2022-10-31T01:18:59;2.50;;;2.25;;
47790;SDS011;33547;49.044;1.156;2022-10-31T01:21:27;3.03;;;1.98;;
47790;SDS011;33547;49.044;1.156;2022-10-31T01:23:54;3.00;;;2.70;;
47790;SDS011;33547;49.044;1.156;2022-10-31T01:26:25;2.30;;;2.10;;
47790;SDS011;33547;49.044;1.156;2022-10-31T01:28:57;2.63;;;2.42;;
47790;SDS011;33547;49.044;1.156;2022-10-31T01:31:35;1.95;;;1.85;;
47790;SDS011;33547;49.044;1.156;2022-10-31T01:34:04;2.60;;;2.40;;
47790;SDS011;33547;49.044;1.156;2022-10-31T01:36:32;2.58;;;2.38;;
47790;SDS011;33547;49.044;1.156;2022-10-31T01:39:03;2.70;;;2.33;;
47790;SDS011;33547;49.044;1.156;2022-10-31T01:41:34;2.80;;;2.35;;
47790;SDS011;33547;49.044;1.156;2022-10-31T01:44:47;2.83;;;2.10;;
47790;SDS011;33547;49.044;1.156;2022-10-31T01:47:12;2.17;;;2.08;;
47790;SDS011;33547;49.044;1.156;2022-10-31T01:49:46;2.50;;;2.30;;
47790;SDS011;33547;49.044;1.156;2022-10-31T01:52:19;2.97;;;2.47;;
47790;SDS011;33547;49.044;1.156;2022-10-31T01:54:59;2.78;;;2.17;;
47790;SDS011;33547;49.044;1.156;2022-10-31T01:57:30;2.55;;;2.35;;
47790;SDS011;33547;49.044;1.156;2022-10-31T01:59:59;2.67;;;2.47;;
47790;SDS011;33547;49.044;1.156;2022-10-31T02:02:30;2.95;;;2.42;;
47790;SDS011;33547;49.044;1.156;2022-10-31T02:04:57;2.80;;;2.53;;
47790;SDS011;33547;49.044;1.156;2022-10-31T02:08:12;2.55;;;2.33;;
47790;SDS011;33547;49.044;1.156;2022-10-31T02:10:29;2.83;;;2.28;;
47790;SDS011;33547;49.044;1.156;2022-10-31T02:12:58;2.58;;;2.38;;
47790;SDS011;33547;49.044;1.156;2022-10-31T02:15:27;2.22;;;2.03;;
47790;SDS011;33547;49.044;1.156;2022-10-31T02:17:55;2.50;;;2.30;;
47790;SDS011;33547;49.044;1.156;2022-10-31T02:20:24;2.85;;;2.65;;
47790;SDS011;33547;49.044;1.156;2022-10-31T02:32:20;4.18;;;2.40;;
47790;SDS011;33547;49.044;1.156;2022-10-31T02:44:10;2.60;;;2.25;;
47790;SDS011;33547;49.044;1.156;2022-10-31T02:46:52;2.20;;;2.00;;
47790;SDS011;33547;49.044;1.156;2022-10-31T02:54:56;5.32;;;2.40;;
47790;SDS011;33547;49.044;1.156;2022-10-31T02:57:23;2.50;;;2.28;;
47790;SDS011;33547;49.044;1.156;2022-10-31T02:59:55;2.70;;;2.38;;
47790;SDS011;33547;49.044;1.156;2022-10-31T03:08:22;2.25;;;2.05;;
47790;SDS011;33547;49.044;1.156;2022-10-31T03:10:56;2.22;;;2.03;;
47790;SDS011;33547;49.044;1.156;2022-10-31T03:16:14;3.20;;;2.40;;
47790;SDS011;33547;49.044;1.156;2022-10-31T03:18:42;3.00;;;2.13;;
47790;SDS011;33547;49.044;1.156;2022-10-31T03:23:55;3.13;;;2.28;;
47790;SDS011;33547;49.044;1.156;2022-10-31T03:26:23;3.60;;;2.90;;
47790;SDS011;33547;49.044;1.156;2022-10-31T03:28:57;2.67;;;2.47;;
47790;SDS011;33547;49.044;1.156;2022-10-31T03:31:33;2.60;;;2.38;;
47790;SDS011;33547;49.044;1.156;2022-10-31T03:34:13;4.30;;;2.50;;
47790;SDS011;33547;49.044;1.156;2022-10-31T03:36:40;4.18;;;2.65;;
47790;SDS011;33547;49.044;1.156;2022-10-31T03:39:09;3.08;;;2.15;;
47790;SDS011;33547;49.044;1.156;2022-10-31T03:41:41;2.90;;;2.70;;
47790;SDS011;33547;49.044;1.156;2022-10-31T03:44:12;2.97;;;2.75;;
47790;SDS011;33547;49.044;1.156;2022-10-31T03:46:43;2.78;;;2.58;;
47790;SDS011;33547;49.044;1.156;2022-10-31T03:49:09;2.85;;;2.65;;
47790;SDS011;33547;49.044;1.156;2022-10-31T03:54:05;2.58;;;2.38;;
47790;SDS011;33547;49.044;1.156;2022-10-31T03:56:53;3.00;;;2.70;;
47790;SDS011;33547;49.044;1.156;2022-10-31T03:59:28;2.78;;;2.58;;
47790;SDS011;33547;49.044;1.156;2022-10-31T04:02:07;3.08;;;2.50;;
47790;SDS011;33547;49.044;1.156;2022-10-31T04:04:40;3.17;;;2.85;;
47790;SDS011;33547;49.044;1.156;2022-10-31T04:07:06;2.92;;;2.67;;
47790;SDS011;33547;49.044;1.156;2022-10-31T04:09:35;3.10;;;2.80;;
47790;SDS011;33547;49.044;1.156;2022-10-31T04:12:03;2.80;;;2.60;;
47790;SDS011;33547;49.044;1.156;2022-10-31T04:14:34;2.60;;;2.40;;
47790;SDS011;33547;49.044;1.156;2022-10-31T04:17:03;3.70;;;2.70;;
47790;SDS011;33547;49.044;1.156;2022-10-31T04:19:33;2.88;;;2.65;;
47790;SDS011;33547;49.044;1.156;2022-10-31T04:21:59;3.13;;;2.80;;
47790;SDS011;33547;49.044;1.156;2022-10-31T04:24:25;3.47;;;2.38;;
47790;SDS011;33547;49.044;1.156;2022-10-31T04:26:51;3.90;;;2.72;;
47790;SDS011;33547;49.044;1.156;2022-10-31T04:29:16;3.08;;;2.33;;
47790;SDS011;33547;49.044;1.156;2022-10-31T04:31:42;3.92;;;2.80;;
47790;SDS011;33547;49.044;1.156;2022-10-31T04:34:08;2.90;;;2.60;;
47790;SDS011;33547;49.044;1.156;2022-10-31T04:36:34;2.63;;;2.42;;
47790;SDS011;33547;49.044;1.156;2022-10-31T04:38:59;2.85;;;2.65;;
47790;SDS011;33547;49.044;1.156;2022-10-31T04:41:25;2.53;;;2.33;;
47790;SDS011;33547;49.044;1.156;2022-10-31T04:43:51;5.68;;;2.50;;
47790;SDS011;33547;49.044;1.156;2022-10-31T04:46:17;7.80;;;3.13;;
47790;SDS011;33547;49.044;1.156;2022-10-31T04:48:43;2.55;;;2.35;;
47790;SDS011;33547;49.044;1.156;2022-10-31T04:51:08;3.20;;;2.88;;
47790;SDS011;33547;49.044;1.156;2022-10-31T04:53:34;2.70;;;2.50;;
47790;SDS011;33547;49.044;1.156;2022-10-31T04:56:00;2.55;;;2.25;;
47790;SDS011;33547;49.044;1.156;2022-10-31T04:58:26;3.47;;;2.40;;
47790;SDS011;33547;49.044;1.156;2022-10-31T05:00:53;3.10;;;2.50;;
47790;SDS011;33547;49.044;1.156;2022-10-31T05:03:20;3.25;;;2.25;;
47790;SDS011;33547;49.044;1.156;2022-10-31T05:05:46;3.08;;;2.33;;
47790;SDS011;33547;49.044;1.156;2022-10-31T05:08:13;2.63;;;2.42;;
47790;SDS011;33547;49.044;1.156;2022-10-31T05:10:39;3.45;;;2.45;;
47790;SDS011;33547;49.044;1.156;2022-10-31T05:13:06;3.30;;;2.30;;
47790;SDS011;33547;49.044;1.156;2022-10-31T05:15:32;2.97;;;2.67;;
47790;SDS011;33547;49.044;1.156;2022-10-31T05:17:58;7.25;;;2.80;;
47790;SDS011;33547;49.044;1.156;2022-10-31T05:20:25;2.80;;;2.60;;
47790;SDS011;33547;49.044;1.156;2022-10-31T05:22:53;5.63;;;2.42;;
47790;SDS011;33547;49.044;1.156;2022-10-31T05:25:21;2.97;;;2.40;;
47790;SDS011;33547;49.044;1.156;2022-10-31T05:27:52;4.70;;;2.42;;
47790;SDS011;33547;49.044;1.156;2022-10-31T05:30:20;3.47;;;2.63;;
47790;SDS011;33547;49.044;1.156;2022-10-31T05:32:49;2.80;;;2.30;;
47790;SDS011;33547;49.044;1.156;2022-10-31T05:35:23;3.15;;;2.55;;
47790;SDS011;33547;49.044;1.156;2022-10-31T05:37:54;3.22;;;2.35;;
47790;SDS011;33547;49.044;1.156;2022-10-31T05:40:22;2.47;;;2.28;;
47790;SDS011;33547;49.044;1.156;2022-10-31T05:42:52;3.63;;;2.20;;
47790;SDS011;33547;49.044;1.156;2022-10-31T05:45:21;2.42;;;2.22;;
47790;SDS011;33547;49.044;1.156;2022-10-31T05:47:54;2.25;;;1.95;;
47790;SDS011;33547;49.044;1.156;2022-10-31T05:50:24;3.05;;;2.10;;
47790;SDS011;33547;49.044;1.156;2022-10-31T05:52:58;2.83;;;2.33;;
47790;SDS011;33547;49.044;1.156;2022-10-31T05:55:29;3.95;;;2.00;;
47790;SDS011;33547;49.044;1.156;2022-10-31T05:57:56;3.78;;;2.05;;
47790;SDS011;33547;49.044;1.156;2022-10-31T06:00:23;14.95;;;3.05;;
47790;SDS011;33547;49.044;1.156;2022-10-31T06:02:57;6.35;;;2.55;;
47790;SDS011;33547;49.044;1.156;2022-10-31T06:05:28;4.47;;;2.20;;
47790;SDS011;33547;49.044;1.156;2022-10-31T06:07:55;4.38;;;2.10;;
47790;SDS011;33547;49.044;1.156;2022-10-31T06:10:21;4.95;;;2.30;;
47790;SDS011;33547;49.044;1.156;2022-10-31T06:12:47;5.50;;;2.20;;
47790;SDS011;33547;49.044;1.156;2022-10-31T06:15:13;4.32;;;2.35;;
47790;SDS011;33547;49.044;1.156;2022-10-31T06:17:40;1.77;;;1.63;;
47790;SDS011;33547;49.044;1.156;2022-10-31T06:20:06;4.95;;;2.47;;
47790;SDS011;33547;49.044;1.156;2022-10-31T06:22:33;6.47;;;2.20;;
47790;SDS011;33547;49.044;1.156;2022-10-31T06:24:59;3.47;;;1.83;;
47790;SDS011;33547;49.044;1.156;2022-10-31T06:27:25;3.97;;;1.98;;
47790;SDS011;33547;49.044;1.156;2022-10-31T06:29:51;2.22;;;1.67;;
47790;SDS011;33547;49.044;1.156;2022-10-31T06:32:17;2.88;;;2.10;;
47790;SDS011;33547;49.044;1.156;2022-10-31T06:34:44;2.42;;;2.15;;
47790;SDS011;33547;49.044;1.156;2022-10-31T06:37:13;3.80;;;2.10;;
47790;SDS011;33547;49.044;1.156;2022-10-31T06:39:38;2.13;;;1.92;;
47790;SDS011;33547;49.044;1.156;2022-10-31T06:42:04;2.70;;;2.20;;
47790;SDS011;33547;49.044;1.156;2022-10-31T06:44:30;2.53;;;2.20;;
47790;SDS011;33547;49.044;1.156;2022-10-31T06:46:57;4.00;;;2.10;;
47790;SDS011;33547;49.044;1.156;2022-10-31T06:49:23;3.30;;;1.52;;
47790;SDS011;33547;49.044;1.156;2022-10-31T06:51:49;1.67;;;1.48;;
47790;SDS011;33547;49.044;1.156;2022-10-31T06:54:16;1.98;;;1.85;;
47790;SDS011;33547;49.044;1.156;2022-10-31T06:56:42;5.07;;;2.20;;
47790;SDS011;33547;49.044;1.156;2022-10-31T06:59:10;2.33;;;2.05;;
47790;SDS011;33547;49.044;1.156;2022-10-31T07:01:36;2.30;;;1.70;;
47790;SDS011;33547;49.044;1.156;2022-10-31T07:04:02;3.75;;;1.95;;
47790;SDS011;33547;49.044;1.156;2022-10-31T07:06:28;1.73;;;1.63;;
47790;SDS011;33547;49.044;1.156;2022-10-31T07:08:54;1.73;;;1.63;;
47790;SDS011;33547;49.044;1.156;2022-10-31T07:11:19;1.77;;;1.67;;
47790;SDS011;33547;49.044;1.156;2022-10-31T07:13:45;2.35;;;1.73;;
47790;SDS011;33547;49.044;1.156;2022-10-31T07:16:11;3.20;;;1.95;;
47790;SDS011;33547;49.044;1.156;2022-10-31T07:18:38;2.85;;;2.15;;
47790;SDS011;33547;49.044;1.156;2022-10-31T07:21:04;1.70;;;1.60;;
47790;SDS011;33547;49.044;1.156;2022-10-31T07:23:30;2.70;;;1.80;;
47790;SDS011;33547;49.044;1.156;2022-10-31T07:25:57;4.50;;;2.00;;
47790;SDS011;33547;49.044;1.156;2022-10-31T07:28:24;1.88;;;1.77;;
47790;SDS011;33547;49.044;1.156;2022-10-31T07:30:55;28.30;;;3.15;;
47790;SDS011;33547;49.044;1.156;2022-10-31T07:33:22;4.03;;;1.80;;
47790;SDS011;33547;49.044;1.156;2022-10-31T07:35:51;2.38;;;1.80;;
47790;SDS011;33547;49.044;1.156;2022-10-31T07:38:17;2.38;;;1.40;;
47790;SDS011;33547;49.044;1.156;2022-10-31T07:40:43;3.55;;;1.40;;
47790;SDS011;33547;49.044;1.156;2022-10-31T07:43:11;2.53;;;2.10;;
47790;SDS011;33547;49.044;1.156;2022-10-31T07:45:37;4.47;;;1.77;;
47790;SDS011;33547;49.044;1.156;2022-10-31T07:48:03;3.40;;;1.90;;
47790;SDS011;33547;49.044;1.156;2022-10-31T07:50:30;3.10;;;1.75;;
47790;SDS011;33547;49.044;1.156;2022-10-31T07:53:06;4.65;;;2.08;;
47790;SDS011;33547;49.044;1.156;2022-10-31T07:55:35;1.98;;;1.67;;
47790;SDS011;33547;49.044;1.156;2022-10-31T07:58:08;3.15;;;1.98;;
47790;SDS011;33547;49.044;1.156;2022-10-31T08:00:39;2.45;;;1.90;;
47790;SDS011;33547;49.044;1.156;2022-10-31T08:03:10;2.03;;;1.90;;
47790;SDS011;33547;49.044;1.156;2022-10-31T08:05:44;2.17;;;1.83;;
47790;SDS011;33547;49.044;1.156;2022-10-31T08:08:11;3.42;;;1.75;;
47790;SDS011;33547;49.044;1.156;2022-10-31T08:10:38;2.00;;;1.80;;
47790;SDS011;33547;49.044;1.156;2022-10-31T08:13:06;2.70;;;1.63;;
47790;SDS011;33547;49.044;1.156;2022-10-31T08:15:37;3.28;;;1.80;;
47790;SDS011;33547;49.044;1.156;2022-10-31T08:18:06;2.53;;;1.77;;
47790;SDS011;33547;49.044;1.156;2022-10-31T08:20:39;1.88;;;1.73;;
47790;SDS011;33547;49.044;1.156;2022-10-31T08:23:09;1.75;;;1.65;;
47790;SDS011;33547;49.044;1.156;2022-10-31T08:25:37;2.72;;;1.90;;
47790;SDS011;33547;49.044;1.156;2022-10-31T08:28:03;4.55;;;1.63;;
47790;SDS011;33547;49.044;1.156;2022-10-31T08:30:31;2.70;;;1.40;;
47790;SDS011;33547;49.044;1.156;2022-10-31T08:35:31;3.40;;;1.55;;
47790;SDS011;33547;49.044;1.156;2022-10-31T08:37:58;2.30;;;1.70;;
47790;SDS011;33547;49.044;1.156;2022-10-31T08:40:25;2.60;;;1.63;;
47790;SDS011;33547;49.044;1.156;2022-10-31T08:43:02;3.25;;;1.90;;
47790;SDS011;33547;49.044;1.156;2022-10-31T08:45:36;4.50;;;1.58;;
47790;SDS011;33547;49.044;1.156;2022-10-31T08:48:03;2.72;;;1.80;;
47790;SDS011;33547;49.044;1.156;2022-10-31T08:50:32;1.70;;;1.60;;
47790;SDS011;33547;49.044;1.156;2022-10-31T08:53:00;1.95;;;1.77;;
47790;SDS011;33547;49.044;1.156;2022-10-31T08:55:36;1.58;;;1.48;;
47790;SDS011;33547;49.044;1.156;2022-10-31T08:58:05;2.85;;;1.70;;
47790;SDS011;33547;49.044;1.156;2022-10-31T09:00:34;1.98;;;1.70;;
47790;SDS011;33547;49.044;1.156;2022-10-31T09:03:04;3.75;;;1.70;;
47790;SDS011;33547;49.044;1.156;2022-10-31T09:05:34;1.70;;;1.60;;
47790;SDS011;33547;49.044;1.156;2022-10-31T09:08:01;8.30;;;2.10;;
47790;SDS011;33547;49.044;1.156;2022-10-31T09:10:29;13.23;;;3.03;;
47790;SDS011;33547;49.044;1.156;2022-10-31T09:12:58;9.48;;;2.65;;
47790;SDS011;33547;49.044;1.156;2022-10-31T09:15:35;8.77;;;2.13;;
47790;SDS011;33547;49.044;1.156;2022-10-31T09:18:07;5.53;;;1.92;;
47790;SDS011;33547;49.044;1.156;2022-10-31T09:20:35;6.30;;;2.67;;
47790;SDS011;33547;49.044;1.156;2022-10-31T09:23:04;4.03;;;2.58;;
47790;SDS011;33547;49.044;1.156;2022-10-31T09:25:39;5.18;;;2.85;;
47790;SDS011;33547;49.044;1.156;2022-10-31T09:28:07;4.90;;;2.60;;
47790;SDS011;33547;49.044;1.156;2022-10-31T09:30:36;15.32;;;3.28;;
47790;SDS011;33547;49.044;1.156;2022-10-31T09:33:03;7.55;;;3.00;;
47790;SDS011;33547;49.044;1.156;2022-10-31T09:35:35;6.13;;;3.65;;
47790;SDS011;33547;49.044;1.156;2022-10-31T09:38:03;6.20;;;3.65;;
47790;SDS011;33547;49.044;1.156;2022-10-31T09:46:17;5.63;;;2.90;;
47790;SDS011;33547;49.044;1.156;2022-10-31T09:52:11;3.78;;;3.28;;
47790;SDS011;33547;49.044;1.156;2022-10-31T09:54:59;4.00;;;2.90;;
47790;SDS011;33547;49.044;1.156;2022-10-31T09:57:43;4.78;;;3.35;;
47790;SDS011;33547;49.044;1.156;2022-10-31T10:00:18;4.78;;;3.28;;
47790;SDS011;33547;49.044;1.156;2022-10-31T10:02:47;8.98;;;4.13;;
47790;SDS011;33547;49.044;1.156;2022-10-31T10:06:01;4.68;;;3.58;;
47790;SDS011;33547;49.044;1.156;2022-10-31T10:08:40;5.50;;;3.47;;
47790;SDS011;33547;49.044;1.156;2022-10-31T10:13:54;4.63;;;3.35;;
47790;SDS011;33547;49.044;1.156;2022-10-31T10:22:34;5.50;;;4.57;;
47790;SDS011;33547;49.044;1.156;2022-10-31T10:34:18;10.20;;;5.90;;
47790;SDS011;33547;49.044;1.156;2022-10-31T10:36:38;8.07;;;5.60;;
47790;SDS011;33547;49.044;1.156;2022-10-31T10:42:00;8.55;;;6.25;;
47790;SDS011;33547;49.044;1.156;2022-10-31T10:44:52;9.63;;;5.88;;
47790;SDS011;33547;49.044;1.156;2022-10-31T10:47:44;7.07;;;5.20;;
47790;SDS011;33547;49.044;1.156;2022-10-31T10:50:20;7.90;;;5.40;;
47790;SDS011;33547;49.044;1.156;2022-10-31T10:58:34;10.55;;;5.68;;
47790;SDS011;33547;49.044;1.156;2022-10-31T11:01:01;10.48;;;6.07;;
47790;SDS011;33547;49.044;1.156;2022-10-31T11:03:35;8.93;;;5.50;;
47790;SDS011;33547;49.044;1.156;2022-10-31T11:06:01;6.93;;;5.10;;
47790;SDS011;33547;49.044;1.156;2022-10-31T11:08:28;8.68;;;5.18;;
47790;SDS011;33547;49.044;1.156;2022-10-31T11:11:30;7.68;;;5.38;;
47790;SDS011;33547;49.044;1.156;2022-10-31T11:13:55;8.98;;;5.43;;
47790;SDS011;33547;49.044;1.156;2022-10-31T11:19:20;7.07;;;5.50;;
47790;SDS011;33547;49.044;1.156;2022-10-31T11:21:51;11.20;;;6.00;;
47790;SDS011;33547;49.044;1.156;2022-10-31T11:24:20;8.73;;;5.78;;
47790;SDS011;33547;49.044;1.156;2022-10-31T11:26:50;8.48;;;5.70;;
47790;SDS011;33547;49.044;1.156;2022-10-31T11:31:43;6.18;;;5.57;;
47790;SDS011;33547;49.044;1.156;2022-10-31T11:34:17;7.65;;;6.50;;
47790;SDS011;33547;49.044;1.156;2022-10-31T11:37:03;8.98;;;5.50;;
47790;SDS011;33547;49.044;1.156;2022-10-31T11:39:40;6.30;;;5.68;;
47790;SDS011;33547;49.044;1.156;2022-10-31T11:42:09;6.47;;;5.20;;
47790;SDS011;33547;49.044;1.156;2022-10-31T11:44:35;8.68;;;6.28;;
47790;SDS011;33547;49.044;1.156;2022-10-31T11:47:02;10.02;;;5.60;;
47790;SDS011;33547;49.044;1.156;2022-10-31T11:52:17;9.77;;;6.65;;
47790;SDS011;33547;49.044;1.156;2022-10-31T11:54:53;9.20;;;6.18;;
47790;SDS011;33547;49.044;1.156;2022-10-31T11:57:43;9.25;;;6.85;;
47790;SDS011;33547;49.044;1.156;2022-10-31T12:00:22;12.13;;;6.07;;
47790;SDS011;33547;49.044;1.156;2022-10-31T12:02:50;10.02;;;5.45;;
47790;SDS011;33547;49.044;1.156;2022-10-31T12:07:45;9.52;;;5.45;;
47790;SDS011;33547;49.044;1.156;2022-10-31T12:10:11;11.05;;;5.07;;
47790;SDS011;33547;49.044;1.156;2022-10-31T12:12:41;8.25;;;5.10;;
47790;SDS011;33547;49.044;1.156;2022-10-31T12:23:37;8.50;;;5.13;;
47790;SDS011;33547;49.044;1.156;2022-10-31T12:30:19;6.03;;;4.97;;
47790;SDS011;33547;49.044;1.156;2022-10-31T12:41:44;9.50;;;4.72;;
47790;SDS011;33547;49.044;1.156;2022-10-31T13:02:18;5.75;;;4.80;;
47790;SDS011;33547;49.044;1.156;2022-10-31T13:08:12;7.15;;;5.22;;
47790;SDS011;33547;49.044;1.156;2022-10-31T13:10:50;7.25;;;5.00;;
47790;SDS011;33547;49.044;1.156;2022-10-31T13:15:54;8.48;;;5.88;;
47790;SDS011;33547;49.044;1.156;2022-10-31T13:18:29;14.10;;;6.88;;
47790;SDS011;33547;49.044;1.156;2022-10-31T13:21:01;8.77;;;5.97;;
47790;SDS011;33547;49.044;1.156;2022-10-31T13:23:34;12.88;;;6.40;;
47790;SDS011;33547;49.044;1.156;2022-10-31T13:26:10;11.63;;;7.75;;
47790;SDS011;33547;49.044;1.156;2022-10-31T13:31:23;13.80;;;8.02;;
47790;SDS011;33547;49.044;1.156;2022-10-31T13:33:56;10.55;;;6.88;;
47790;SDS011;33547;49.044;1.156;2022-10-31T13:39:08;11.25;;;7.38;;
47790;SDS011;33547;49.044;1.156;2022-10-31T13:45:24;13.98;;;7.80;;
47790;SDS011;33547;49.044;1.156;2022-10-31T13:47:55;11.38;;;7.40;;
47790;SDS011;33547;49.044;1.156;2022-10-31T13:50:40;10.45;;;7.05;;
47790;SDS011;33547;49.044;1.156;2022-10-31T13:55:44;14.20;;;7.93;;
47790;SDS011;33547;49.044;1.156;2022-10-31T13:58:22;9.85;;;6.07;;
47790;SDS011;33547;49.044;1.156;2022-10-31T14:01:02;7.88;;;6.30;;
47790;SDS011;33547;49.044;1.156;2022-10-31T14:03:35;11.13;;;6.60;;
47790;SDS011;33547;49.044;1.156;2022-10-31T14:06:04;10.10;;;6.57;;
47790;SDS011;33547;49.044;1.156;2022-10-31T14:08:34;14.23;;;6.60;;
47790;SDS011;33547;49.044;1.156;2022-10-31T14:11:02;10.13;;;6.55;;
47790;SDS011;33547;49.044;1.156;2022-10-31T14:13:42;8.88;;;6.18;;
47790;SDS011;33547;49.044;1.156;2022-10-31T14:16:23;8.90;;;6.40;;
47790;SDS011;33547;49.044;1.156;2022-10-31T14:18:59;8.63;;;6.57;;
47790;SDS011;33547;49.044;1.156;2022-10-31T14:21:38;7.72;;;6.32;;
47790;SDS011;33547;49.044;1.156;2022-10-31T14:24:40;13.82;;;7.05;;
47790;SDS011;33547;49.044;1.156;2022-10-31T14:27:03;9.40;;;7.00;;
47790;SDS011;33547;49.044;1.156;2022-10-31T14:29:51;9.98;;;7.05;;
47790;SDS011;33547;49.044;1.156;2022-10-31T14:32:23;11.32;;;7.10;;
47790;SDS011;33547;49.044;1.156;2022-10-31T14:40:35;14.50;;;7.20;;
47790;SDS011;33547;49.044;1.156;2022-10-31T14:51:57;14.98;;;7.68;;
47790;SDS011;33547;49.044;1.156;2022-10-31T14:54:32;14.68;;;7.47;;
47790;SDS011;33547;49.044;1.156;2022-10-31T14:57:22;13.18;;;6.85;;
47790;SDS011;33547;49.044;1.156;2022-10-31T14:59:57;14.48;;;7.55;;
47790;SDS011;33547;49.044;1.156;2022-10-31T15:02:50;15.77;;;7.88;;
47790;SDS011;33547;49.044;1.156;2022-10-31T15:05:42;15.73;;;7.55;;
47790;SDS011;33547;49.044;1.156;2022-10-31T15:11:17;14.43;;;7.28;;
47790;SDS011;33547;49.044;1.156;2022-10-31T15:13:55;12.35;;;7.30;;
47790;SDS011;33547;49.044;1.156;2022-10-31T15:16:27;10.20;;;6.95;;
47790;SDS011;33547;49.044;1.156;2022-10-31T15:19:02;10.55;;;6.93;;
47790;SDS011;33547;49.044;1.156;2022-10-31T15:21:31;11.98;;;6.97;;
47790;SDS011;33547;49.044;1.156;2022-10-31T15:23:59;13.63;;;7.50;;
47790;SDS011;33547;49.044;1.156;2022-10-31T15:26:27;11.90;;;7.15;;
47790;SDS011;33547;49.044;1.156;2022-10-31T15:29:03;15.15;;;7.18;;
47790;SDS011;33547;49.044;1.156;2022-10-31T15:31:35;9.88;;;7.10;;
47790;SDS011;33547;49.044;1.156;2022-10-31T15:34:03;10.35;;;7.35;;
47790;SDS011;33547;49.044;1.156;2022-10-31T15:36:41;13.55;;;7.45;;
47790;SDS011;33547;49.044;1.156;2022-10-31T15:39:10;13.65;;;7.07;;
47790;SDS011;33547;49.044;1.156;2022-10-31T15:41:47;10.60;;;6.55;;
47790;SDS011;33547;49.044;1.156;2022-10-31T15:44:27;11.98;;;7.63;;
47790;SDS011;33547;49.044;1.156;2022-10-31T15:46:56;13.02;;;7.80;;
47790;SDS011;33547;49.044;1.156;2022-10-31T15:49:28;15.70;;;7.95;;
47790;SDS011;33547;49.044;1.156;2022-10-31T15:52:01;16.33;;;7.45;;
47790;SDS011;33547;49.044;1.156;2022-10-31T15:54:48;14.98;;;8.00;;
47790;SDS011;33547;49.044;1.156;2022-10-31T15:57:19;10.88;;;7.00;;
47790;SDS011;33547;49.044;1.156;2022-10-31T15:59:46;10.00;;;6.97;;
47790;SDS011;33547;49.044;1.156;2022-10-31T16:02:14;8.93;;;6.85;;
47790;SDS011;33547;49.044;1.156;2022-10-31T16:05:15;12.40;;;7.90;;
47790;SDS011;33547;49.044;1.156;2022-10-31T16:07:49;11.27;;;7.55;;
47790;SDS011;33547;49.044;1.156;2022-10-31T16:10:23;11.75;;;7.40;;
47790;SDS011;33547;49.044;1.156;2022-10-31T16:12:51;12.40;;;7.65;;
47790;SDS011;33547;49.044;1.156;2022-10-31T16:15:18;11.02;;;7.65;;
47790;SDS011;33547;49.044;1.156;2022-10-31T16:17:49;12.23;;;7.63;;
47790;SDS011;33547;49.044;1.156;2022-10-31T16:20:21;10.75;;;6.88;;
47790;SDS011;33547;49.044;1.156;2022-10-31T16:22:56;12.40;;;7.07;;
47790;SDS011;33547;49.044;1.156;2022-10-31T16:25:34;13.68;;;7.80;;
47790;SDS011;33547;49.044;1.156;2022-10-31T16:28:16;10.10;;;7.20;;
47790;SDS011;33547;49.044;1.156;2022-10-31T16:30:53;11.10;;;7.35;;
47790;SDS011;33547;49.044;1.156;2022-10-31T16:33:28;8.48;;;7.18;;
47790;SDS011;33547;49.044;1.156;2022-10-31T16:36:00;8.82;;;6.97;;
47790;SDS011;33547;49.044;1.156;2022-10-31T16:38:52;11.40;;;7.35;;
47790;SDS011;33547;49.044;1.156;2022-10-31T16:41:22;11.25;;;7.70;;
47790;SDS011;33547;49.044;1.156;2022-10-31T16:43:49;8.23;;;6.97;;
47790;SDS011;33547;49.044;1.156;2022-10-31T16:46:23;9.75;;;6.63;;
47790;SDS011;33547;49.044;1.156;2022-10-31T16:48:51;8.55;;;6.15;;
47790;SDS011;33547;49.044;1.156;2022-10-31T16:51:17;7.70;;;6.90;;
47790;SDS011;33547;49.044;1.156;2022-10-31T16:53:43;9.02;;;7.03;;
47790;SDS011;33547;49.044;1.156;2022-10-31T16:56:29;9.55;;;6.20;;
47790;SDS011;33547;49.044;1.156;2022-10-31T16:58:58;8.65;;;6.60;;
47790;SDS011;33547;49.044;1.156;2022-10-31T17:01:26;11.98;;;7.00;;
47790;SDS011;33547;49.044;1.156;2022-10-31T17:03:53;8.77;;;7.22;;
47790;SDS011;33547;49.044;1.156;2022-10-31T17:06:18;7.55;;;6.28;;
47790;SDS011;33547;49.044;1.156;2022-10-31T17:08:44;8.65;;;6.47;;
47790;SDS011;33547;49.044;1.156;2022-10-31T17:11:14;8.13;;;6.78;;
47790;SDS011;33547;49.044;1.156;2022-10-31T17:13:43;8.13;;;6.45;;
47790;SDS011;33547;49.044;1.156;2022-10-31T17:16:09;8.27;;;6.40;;
47790;SDS011;33547;49.044;1.156;2022-10-31T17:18:39;13.70;;;7.43;;
47790;SDS011;33547;49.044;1.156;2022-10-31T17:21:05;10.68;;;6.95;;
47790;SDS011;33547;49.044;1.156;2022-10-31T17:23:31;9.55;;;6.72;;
47790;SDS011;33547;49.044;1.156;2022-10-31T17:25:57;10.00;;;6.40;;
47790;SDS011;33547;49.044;1.156;2022-10-31T17:28:24;9.43;;;7.32;;
47790;SDS011;33547;49.044;1.156;2022-10-31T17:30:50;10.45;;;6.43;;
47790;SDS011;33547;49.044;1.156;2022-10-31T17:33:19;8.23;;;6.65;;
47790;SDS011;33547;49.044;1.156;2022-10-31T17:35:45;11.15;;;7.40;;
47790;SDS011;33547;49.044;1.156;2022-10-31T17:38:11;9.90;;;7.25;;
47790;SDS011;33547;49.044;1.156;2022-10-31T17:40:38;8.32;;;6.40;;
47790;SDS011;33547;49.044;1.156;2022-10-31T17:43:06;8.32;;;6.47;;
47790;SDS011;33547;49.044;1.156;2022-10-31T17:45:33;8.27;;;6.47;;
47790;SDS011;33547;49.044;1.156;2022-10-31T17:47:59;7.65;;;6.85;;